AGROMETEOROLOŠKI PORTAL

vinorodna pokrajina

Temelj dobrega kmetovanja

Pregled podatkov za lokacijo Ljubljana KIS, meteorološka postaja 49993

Pregled senzorjev na lokaciji

ID Ime Zadnja
vrednost
Datum in čas
meritve
(lokalni čas)
Tip
senzorja
6132 Omočenost lista (1,5 m) (U) 10 U 6.10.2022 05:30 A730WET
6133 Padavine (mm) 0 mm 6.10.2022 05:30 Generic 0.2 mm
6135 Relativna zračna vlaga (2 m) (%RH) 97 %RH 6.10.2022 05:30 Generic 0 - 100 %
6134 Temperatura (2 m) (°C) 9,8 °C 6.10.2022 05:30 Generic -40 - +60 °C

Pregled podatkov zadnjih 24 ur

Zap.
št.
Datum in čas
(lokalni čas)
Ljubljana KIS
Omočenost
lista
(1,5
m)
Padavine Relativna
zračna
vlaga
(2
m)
Temperatura
(2
m)
1 6.10.2022 05:30 10 0 96,8 9,8
2 6.10.2022 05:00 10 0 96,5 9,9
3 6.10.2022 04:30 10 0 96,2 10,1
4 6.10.2022 04:00 10 0 95,9 10,3
5 6.10.2022 03:30 10 0 95,7 10,7
6 6.10.2022 03:00 10 0 95,5 11
7 6.10.2022 02:30 10 0 95,2 11
8 6.10.2022 02:00 10 0 94,6 11,1
9 6.10.2022 01:30 10 0 93,6 11,5
10 6.10.2022 01:00 10 0 92 11,9
11 6.10.2022 00:30 10 0 89,9 12,5
12 6.10.2022 00:00 10 0 85,6 13,8
13 5.10.2022 23:30 10 0 84,4 14,4
14 5.10.2022 23:00 9 0 83 14,6
15 5.10.2022 22:30 3 0 81 15
16 5.10.2022 22:00 1 0 78,9 15,5
17 5.10.2022 21:30 1 0 77,8 15,8
18 5.10.2022 21:00 1 0 76,9 16
19 5.10.2022 20:30 0 0 75,2 16,4
20 5.10.2022 20:00 0 0 71,6 17,2
21 5.10.2022 19:30 0 0 68,5 17,7
22 5.10.2022 19:00 0 0 65,4 18,2
23 5.10.2022 18:30 0 0 61,5 19
24 5.10.2022 18:00 0 0 59 19,7
25 5.10.2022 17:30 0 0 57,4 20,3
26 5.10.2022 17:00 0 0 57,5 20,5
27 5.10.2022 16:30 0 0 56,7 20,6
28 5.10.2022 16:00 0 0 54,3 21,4
29 5.10.2022 15:30 0 0 53 21,9
30 5.10.2022 15:00 0 0 54,3 21,8
31 5.10.2022 14:30 0 0 57,4 21,3
32 5.10.2022 14:00 0 0 58,7 20,8
33 5.10.2022 13:30 0 0 63,4 19,3
34 5.10.2022 13:00 0 0 66,7 17,9
35 5.10.2022 12:30 0 0 68,1 17,3
36 5.10.2022 12:00 0 0 71,4 16,3
37 5.10.2022 11:30 0 0 77,4 15
38 5.10.2022 11:00 0 0 84,9 13,1
39 5.10.2022 10:30 1 0 92 11,3
40 5.10.2022 10:00 2 0 96,6 10,8
41 5.10.2022 09:30 4 0 98 10,3
42 5.10.2022 09:00 6 0 98,4 9,9
43 5.10.2022 08:30 9 0 98,4 9,6
44 5.10.2022 08:00 10 0 98,4 9,5
45 5.10.2022 07:30 10 0 98,6 9,6
46 5.10.2022 07:00 10 0 98,5 9,4